createdAt,value
2022-09-03T00:00:26.062Z,85.04
2022-09-03T00:03:23.917Z,85.12
2022-09-03T00:06:01.669Z,85.11
2022-09-03T00:08:40.713Z,85.00
2022-09-03T00:11:22.089Z,84.81
2022-09-03T00:13:57.773Z,85.03
2022-09-03T00:16:29.636Z,85.08
2022-09-03T00:19:01.021Z,85.30
2022-09-03T00:21:34.703Z,85.16
2022-09-03T00:24:04.963Z,85.01
2022-09-03T00:26:35.460Z,84.95
2022-09-03T00:29:09.595Z,85.03
2022-09-03T00:31:47.918Z,84.86
2022-09-03T00:34:34.197Z,84.90
2022-09-03T00:37:03.836Z,85.09
2022-09-03T00:39:31.823Z,84.92
2022-09-03T00:42:11.898Z,84.78
2022-09-03T00:44:55.449Z,84.64
2022-09-03T00:47:42.171Z,85.04
2022-09-03T00:50:29.682Z,85.13
2022-09-03T00:53:08.274Z,85.16
2022-09-03T00:55:58.900Z,85.03
2022-09-03T00:58:39.824Z,85.15
2022-09-03T01:01:15.158Z,85.11
2022-09-03T01:04:04.199Z,85.21
2022-09-03T01:06:34.886Z,85.33
2022-09-03T01:09:25.585Z,85.31
2022-09-03T01:12:14.904Z,85.21
2022-09-03T01:14:55.394Z,85.28
2022-09-03T01:17:30.979Z,85.28
2022-09-03T01:20:14.104Z,85.18
2022-09-03T01:23:00.878Z,85.19
2022-09-03T01:25:38.883Z,85.27
2022-09-03T01:28:23.769Z,85.20
2022-09-03T01:31:02.855Z,85.03
2022-09-03T01:33:38.477Z,85.15
2022-09-03T01:36:18.692Z,85.02
2022-09-03T01:38:58.641Z,85.05
2022-09-03T01:41:45.348Z,85.13
2022-09-03T01:44:25.513Z,85.10
2022-09-03T01:47:02.100Z,85.08
2022-09-03T01:49:38.544Z,85.03
2022-09-03T01:52:19.620Z,85.08
2022-09-03T01:54:55.420Z,85.22
2022-09-03T01:57:35.444Z,85.32
2022-09-03T02:00:11.221Z,85.10
2022-09-03T02:02:43.649Z,85.24
2022-09-03T02:05:16.589Z,85.15
2022-09-03T02:07:48.653Z,85.20
2022-09-03T02:10:21.487Z,85.22
2022-09-03T02:12:54.574Z,85.43
2022-09-03T02:15:24.044Z,85.43
2022-09-03T02:17:54.304Z,85.42
2022-09-03T02:20:23.502Z,85.38
2022-09-03T02:22:54.191Z,85.49
2022-09-03T02:25:23.741Z,85.44
2022-09-03T02:27:51.837Z,85.50
2022-09-03T02:30:19.816Z,85.42
2022-09-03T02:32:47.950Z,85.43
2022-09-03T02:35:15.927Z,85.40
2022-09-03T02:37:44.189Z,85.32
2022-09-03T02:40:12.159Z,85.40
2022-09-03T02:42:40.106Z,85.36
2022-09-03T02:45:08.419Z,85.38
2022-09-03T02:47:38.971Z,85.38
2022-09-03T02:50:07.339Z,85.39
2022-09-03T02:52:35.530Z,85.37
2022-09-03T02:55:03.473Z,86.26
2022-09-03T02:57:31.464Z,86.23
2022-09-03T02:59:59.470Z,86.24
2022-09-03T03:02:27.334Z,86.37
2022-09-03T03:04:55.843Z,86.76
2022-09-03T03:07:23.732Z,86.61
2022-09-03T03:09:51.651Z,86.57
2022-09-03T03:12:20.306Z,86.19
2022-09-03T03:14:48.169Z,86.13
2022-09-03T03:17:16.128Z,86.19
2022-09-03T03:19:44.017Z,86.11
2022-09-03T03:22:11.957Z,86.19
2022-09-03T03:24:41.055Z,86.19
2022-09-03T03:27:11.276Z,86.16
2022-09-03T03:29:39.747Z,86.06
2022-09-03T03:32:07.672Z,86.36
2022-09-03T03:34:35.662Z,86.88
2022-09-03T03:37:04.716Z,86.54
2022-09-03T03:39:32.761Z,86.15
2022-09-03T03:42:00.808Z,86.07
2022-09-03T03:44:29.930Z,86.15
2022-09-03T03:46:57.800Z,86.00
2022-09-03T03:49:25.748Z,85.81
2022-09-03T03:51:53.696Z,85.87
2022-09-03T03:54:22.581Z,85.83
2022-09-03T03:56:55.789Z,85.91
2022-09-03T03:59:23.690Z,85.75
2022-09-03T04:01:55.229Z,85.67
2022-09-03T04:04:23.294Z,85.65
2022-09-03T04:06:51.591Z,85.42
2022-09-03T04:09:19.689Z,85.40
2022-09-03T04:11:47.471Z,85.64
2022-09-03T04:14:15.396Z,85.70
2022-09-03T04:16:43.748Z,85.85
2022-09-03T04:19:11.722Z,85.60
2022-09-03T04:21:39.922Z,85.64
2022-09-03T04:24:08.020Z,85.80
2022-09-03T04:26:36.474Z,85.75
2022-09-03T04:29:05.981Z,85.65
2022-09-03T04:31:34.747Z,85.88
2022-09-03T04:34:02.822Z,85.95
2022-09-03T04:36:31.414Z,86.09
2022-09-03T04:39:00.337Z,86.10
2022-09-03T04:41:29.522Z,86.24
2022-09-03T04:43:58.393Z,86.35
2022-09-03T04:46:28.037Z,86.37
2022-09-03T04:48:57.210Z,86.38
2022-09-03T04:51:27.585Z,86.49
2022-09-03T04:53:57.195Z,86.35
2022-09-03T04:56:26.696Z,86.29
2022-09-03T04:58:55.952Z,86.46
2022-09-03T05:01:25.619Z,86.40
2022-09-03T05:03:58.808Z,86.47
2022-09-03T05:06:28.162Z,86.45
2022-09-03T05:08:57.282Z,86.60
2022-09-03T05:11:26.221Z,86.68
2022-09-03T05:13:55.488Z,86.52
2022-09-03T05:16:24.300Z,86.48
2022-09-03T05:18:52.986Z,86.44
2022-09-03T05:21:21.347Z,86.38
2022-09-03T05:23:53.363Z,86.02
2022-09-03T05:26:25.325Z,85.94
2022-09-03T05:28:55.358Z,85.97
2022-09-03T05:31:26.536Z,85.83
2022-09-03T05:33:58.630Z,85.80
2022-09-03T05:36:30.963Z,85.48
2022-09-03T05:38:59.389Z,85.37
2022-09-03T05:41:28.202Z,85.53
2022-09-03T05:43:58.766Z,85.70
2022-09-03T05:46:32.207Z,85.63
2022-09-03T05:49:09.567Z,85.59
2022-09-03T05:51:39.546Z,85.68
2022-09-03T05:54:08.983Z,85.65
2022-09-03T05:56:40.282Z,85.54
2022-09-03T05:59:09.414Z,85.66
2022-09-03T06:01:41.045Z,85.54
2022-09-03T06:04:15.283Z,85.55
2022-09-03T06:06:44.247Z,85.55
2022-09-03T06:09:13.898Z,85.43
2022-09-03T06:11:42.943Z,85.46
2022-09-03T06:14:12.497Z,85.37
2022-09-03T06:16:45.152Z,85.31
2022-09-03T06:19:14.420Z,85.55
2022-09-03T06:21:44.124Z,85.65
2022-09-03T06:24:16.368Z,85.37
2022-09-03T06:26:44.321Z,85.06
2022-09-03T06:29:12.764Z,85.35
2022-09-03T06:31:41.278Z,85.34
2022-09-03T06:34:09.744Z,85.40
2022-09-03T06:36:37.812Z,85.37
2022-09-03T06:39:05.766Z,85.42
2022-09-03T06:41:35.103Z,85.23
2022-09-03T06:44:04.817Z,85.30
2022-09-03T06:46:33.774Z,85.69
2022-09-03T06:49:01.848Z,85.72
2022-09-03T06:51:31.231Z,85.57
2022-09-03T06:54:01.147Z,85.36
2022-09-03T06:56:29.647Z,84.96
2022-09-03T06:58:58.855Z,84.83
2022-09-03T07:01:33.860Z,84.50
2022-09-03T07:04:03.466Z,84.22
2022-09-03T07:06:33.113Z,84.11
2022-09-03T07:09:01.393Z,84.15
2022-09-03T07:11:31.083Z,84.53
2022-09-03T07:13:59.579Z,84.44
2022-09-03T07:16:29.350Z,84.33
2022-09-03T07:18:57.628Z,84.44
2022-09-03T07:21:27.059Z,84.37
2022-09-03T07:23:55.757Z,84.45
2022-09-03T07:26:25.045Z,84.51
2022-09-03T07:28:54.292Z,84.75
2022-09-03T07:31:26.592Z,84.92
2022-09-03T07:33:55.763Z,84.72
2022-09-03T07:36:24.263Z,84.75
2022-09-03T07:38:55.210Z,84.50
2022-09-03T07:41:28.978Z,84.20
2022-09-03T07:43:57.449Z,84.03
2022-09-03T07:46:27.460Z,83.84
2022-09-03T07:48:59.275Z,83.51
2022-09-03T07:51:28.453Z,83.33
2022-09-03T07:53:57.881Z,83.10
2022-09-03T07:56:27.154Z,82.92
2022-09-03T07:58:57.834Z,82.27
2022-09-03T08:01:28.635Z,81.68
2022-09-03T08:03:56.725Z,81.50
2022-09-03T08:06:25.750Z,81.73
2022-09-03T08:09:04.128Z,81.79
2022-09-03T08:11:35.337Z,81.33
2022-09-03T08:14:06.747Z,81.30
2022-09-03T08:16:36.379Z,81.27
2022-09-03T08:19:04.986Z,81.40
2022-09-03T08:21:33.142Z,81.07
2022-09-03T08:24:03.839Z,80.84
2022-09-03T08:26:32.945Z,80.53
2022-09-03T08:29:02.032Z,80.49
2022-09-03T08:31:30.380Z,80.19
2022-09-03T08:33:59.723Z,80.31
2022-09-03T08:36:30.200Z,80.10
2022-09-03T08:39:04.127Z,79.70
2022-09-03T08:41:42.641Z,79.78
2022-09-03T08:44:28.739Z,79.69
2022-09-03T08:46:59.639Z,79.61
2022-09-03T08:49:33.402Z,79.46
2022-09-03T08:52:03.311Z,79.54
2022-09-03T08:54:32.064Z,79.46
2022-09-03T08:57:03.912Z,79.33
2022-09-03T08:59:32.893Z,78.97
2022-09-03T09:02:01.476Z,78.48
2022-09-03T09:04:40.368Z,78.32
2022-09-03T09:07:08.527Z,77.93
2022-09-03T09:09:36.360Z,77.86
2022-09-03T09:12:22.749Z,77.85
2022-09-03T09:14:50.821Z,78.05
2022-09-03T09:17:18.683Z,78.37
2022-09-03T09:20:01.976Z,78.79
2022-09-03T09:22:35.889Z,78.64
2022-09-03T09:25:09.350Z,78.66
2022-09-03T09:27:37.304Z,79.11
2022-09-03T09:30:05.732Z,78.93
2022-09-03T09:32:35.068Z,78.86
2022-09-03T09:35:02.875Z,78.34
2022-09-03T09:37:30.709Z,78.07
2022-09-03T09:39:59.998Z,78.33
2022-09-03T09:42:31.156Z,78.56
2022-09-03T09:45:08.820Z,78.27
2022-09-03T09:47:39.671Z,77.64
2022-09-03T09:50:25.043Z,77.77
2022-09-03T09:53:05.405Z,77.72
2022-09-03T09:55:33.219Z,77.62
2022-09-03T09:58:14.020Z,77.58
2022-09-03T10:00:42.987Z,78.34
2022-09-03T10:03:13.847Z,78.75
2022-09-03T10:05:43.934Z,78.74
2022-09-03T10:08:22.173Z,78.32
2022-09-03T10:10:50.926Z,77.93
2022-09-03T10:13:21.591Z,77.59
2022-09-03T10:15:52.393Z,77.51
2022-09-03T10:18:39.197Z,77.49
2022-09-03T10:21:07.774Z,77.34
2022-09-03T10:23:44.893Z,77.22
2022-09-03T10:26:20.717Z,76.89
2022-09-03T10:28:51.775Z,76.75
2022-09-03T10:31:24.654Z,76.34
2022-09-03T10:33:52.832Z,75.92
2022-09-03T10:36:26.622Z,74.92
2022-09-03T10:39:14.752Z,74.98
2022-09-03T10:42:02.691Z,74.55
2022-09-03T10:44:35.450Z,74.21
2022-09-03T10:47:03.252Z,73.42
2022-09-03T10:49:31.204Z,71.95
2022-09-03T10:52:12.480Z,70.88
2022-09-03T10:54:46.335Z,68.91
2022-09-03T10:57:20.081Z,69.62
2022-09-03T11:00:05.876Z,69.63
2022-09-03T11:02:43.994Z,69.66
2022-09-03T11:05:23.084Z,69.00
2022-09-03T11:08:03.963Z,68.68
2022-09-03T11:10:41.103Z,67.59
2022-09-03T11:13:13.569Z,67.73
2022-09-03T11:15:46.112Z,67.28
2022-09-03T11:18:14.065Z,65.98
2022-09-03T11:20:43.150Z,65.89
2022-09-03T11:23:13.574Z,65.05
2022-09-03T11:25:46.544Z,65.18
2022-09-03T11:28:20.377Z,65.15
2022-09-03T11:31:07.083Z,64.37
2022-09-03T11:33:41.013Z,64.72
2022-09-03T11:36:09.465Z,65.35
2022-09-03T11:38:39.088Z,65.02
2022-09-03T11:41:27.336Z,63.88
2022-09-03T11:43:55.546Z,63.67
2022-09-03T11:46:23.815Z,63.57
2022-09-03T11:48:53.243Z,64.23
2022-09-03T11:51:30.321Z,61.67
2022-09-03T11:54:03.216Z,62.40
2022-09-03T11:56:32.357Z,61.23
2022-09-03T11:59:04.073Z,61.39
2022-09-03T12:01:32.494Z,61.82
2022-09-03T12:04:06.032Z,61.47
2022-09-03T12:06:42.631Z,61.91
2022-09-03T12:09:34.277Z,60.84
2022-09-03T12:12:15.354Z,60.80
2022-09-03T12:14:47.146Z,60.63
2022-09-03T12:17:14.954Z,60.96
2022-09-03T12:19:51.360Z,60.21
2022-09-03T12:22:20.707Z,59.69
2022-09-03T12:24:48.979Z,57.38
2022-09-03T12:27:22.710Z,58.33
2022-09-03T12:30:00.520Z,59.99
2022-09-03T12:32:32.489Z,59.99
2022-09-03T12:35:11.111Z,58.20
2022-09-03T12:40:28.934Z,56.47
2022-09-03T12:46:15.961Z,57.88
2022-09-03T12:51:53.546Z,58.73
2022-09-03T12:54:24.624Z,57.90
2022-09-03T12:56:56.692Z,57.63
2022-09-03T12:59:27.380Z,58.31
2022-09-03T13:05:54.889Z,57.98
2022-09-03T13:08:46.061Z,56.91
2022-09-03T13:11:16.804Z,57.05
2022-09-03T13:13:55.657Z,55.21
2022-09-03T13:16:32.782Z,56.03
2022-09-03T13:19:23.986Z,56.55
2022-09-03T13:22:10.190Z,56.09
2022-09-03T13:24:44.111Z,55.37
2022-09-03T13:27:24.174Z,56.67
2022-09-03T13:29:52.639Z,57.67
2022-09-03T13:32:20.517Z,58.46
2022-09-03T13:34:59.430Z,58.75
2022-09-03T13:37:39.509Z,58.82
2022-09-03T13:40:16.202Z,58.97
2022-09-03T13:42:55.293Z,59.23
2022-09-03T13:45:30.537Z,59.10
2022-09-03T13:48:31.679Z,59.05
2022-09-03T13:51:04.111Z,59.31
2022-09-03T13:53:35.766Z,59.85
2022-09-03T13:56:14.288Z,60.00
2022-09-03T13:58:45.152Z,60.03
2022-09-03T14:01:25.409Z,60.17
2022-09-03T14:03:55.602Z,60.63
2022-09-03T14:06:41.423Z,60.56
2022-09-03T14:09:15.500Z,60.57
2022-09-03T14:11:49.649Z,60.43
2022-09-03T14:14:29.717Z,60.51
2022-09-03T14:17:10.791Z,60.64
2022-09-03T14:19:47.877Z,60.52
2022-09-03T14:22:19.529Z,60.69
2022-09-03T14:24:52.236Z,60.77
2022-09-03T14:27:28.477Z,60.51
2022-09-03T14:30:04.919Z,60.75
2022-09-03T14:32:44.713Z,61.08
2022-09-03T14:35:17.261Z,61.46
2022-09-03T14:38:04.013Z,61.20
2022-09-03T14:40:40.859Z,61.21
2022-09-03T14:43:27.572Z,61.56
2022-09-03T14:46:03.611Z,61.91
2022-09-03T14:48:33.628Z,62.25
2022-09-03T14:51:19.716Z,62.12
2022-09-03T14:54:06.650Z,62.24
2022-09-03T14:56:38.719Z,62.72
2022-09-03T14:59:06.786Z,62.93
2022-09-03T15:01:39.284Z,63.01
2022-09-03T15:04:26.615Z,63.11
2022-09-03T15:06:57.834Z,63.33
2022-09-03T15:09:44.705Z,63.71
2022-09-03T15:12:31.300Z,63.97
2022-09-03T15:15:01.886Z,64.19
2022-09-03T15:17:56.743Z,64.47
2022-09-03T15:20:24.758Z,64.92
2022-09-03T15:22:58.375Z,65.03
2022-09-03T15:25:26.176Z,65.47
2022-09-03T15:28:17.128Z,65.27
2022-09-03T15:30:49.807Z,65.28
2022-09-03T15:33:23.434Z,65.56
2022-09-03T15:36:17.784Z,65.70
2022-09-03T15:39:07.706Z,65.97
2022-09-03T15:41:40.789Z,66.23
2022-09-03T15:44:15.724Z,66.39
2022-09-03T15:47:12.210Z,66.88
2022-09-03T15:50:04.857Z,68.39
2022-09-03T15:52:39.034Z,68.22
2022-09-03T15:55:09.235Z,67.42
2022-09-03T15:57:39.848Z,67.56
2022-09-03T16:00:08.706Z,67.91
2022-09-03T16:02:36.725Z,68.03
2022-09-03T16:05:17.096Z,68.42
2022-09-03T16:07:55.436Z,68.82
2022-09-03T16:10:32.893Z,68.77
2022-09-03T16:13:09.717Z,68.67
2022-09-03T16:15:43.694Z,68.45
2022-09-03T16:18:11.597Z,68.27
2022-09-03T16:20:53.804Z,68.62
2022-09-03T16:23:25.711Z,68.98
2022-09-03T16:25:56.623Z,69.10
2022-09-03T16:28:32.504Z,69.29
2022-09-03T16:31:24.916Z,69.18
2022-09-03T16:34:17.962Z,69.08
2022-09-03T16:36:57.862Z,69.55
2022-09-03T16:39:28.966Z,69.58
2022-09-03T16:42:12.161Z,69.44
2022-09-03T16:44:46.075Z,69.52
2022-09-03T16:47:19.735Z,69.59
2022-09-03T16:49:47.605Z,69.90
2022-09-03T16:52:16.083Z,70.05
2022-09-03T16:54:51.846Z,70.18
2022-09-03T16:57:50.166Z,70.31
2022-09-03T17:00:21.134Z,72.14
2022-09-03T17:02:52.515Z,72.42
2022-09-03T17:05:49.893Z,73.41
2022-09-03T17:08:20.729Z,73.71
2022-09-03T17:11:07.282Z,73.58
2022-09-03T17:13:35.384Z,73.67
2022-09-03T17:16:23.592Z,73.35
2022-09-03T17:18:53.085Z,73.08
2022-09-03T17:21:26.877Z,73.15
2022-09-03T17:24:13.160Z,73.32
2022-09-03T17:26:56.025Z,73.28
2022-09-03T17:29:41.758Z,73.30
2022-09-03T17:32:21.690Z,73.49
2022-09-03T17:35:08.603Z,73.58
2022-09-03T17:37:40.430Z,73.53
2022-09-03T17:40:21.078Z,73.74
2022-09-03T17:42:49.370Z,74.19
2022-09-03T17:45:24.853Z,74.47
2022-09-03T17:47:58.823Z,74.66
2022-09-03T17:50:31.748Z,74.91
2022-09-03T17:53:26.167Z,75.38
2022-09-03T17:56:00.598Z,75.15
2022-09-03T17:58:31.500Z,75.24
2022-09-03T18:01:11.680Z,75.31
2022-09-03T18:03:48.516Z,75.12
2022-09-03T18:06:23.937Z,75.60
2022-09-03T18:08:55.431Z,75.45
2022-09-03T18:11:30.580Z,75.46
2022-09-03T18:14:04.988Z,75.63
2022-09-03T18:16:34.432Z,75.58
2022-09-03T18:19:04.282Z,75.79
2022-09-03T18:21:54.810Z,75.95
2022-09-03T18:25:00.380Z,76.52
2022-09-03T18:27:57.368Z,76.38
2022-09-03T18:30:44.310Z,76.46
2022-09-03T18:33:38.529Z,76.37
2022-09-03T18:36:25.173Z,76.22
2022-09-03T18:39:32.778Z,76.89
2022-09-03T18:42:26.091Z,76.66
2022-09-03T18:45:56.289Z,76.77
2022-09-03T18:48:48.958Z,76.79
2022-09-03T18:51:54.313Z,77.01
2022-09-03T18:55:08.041Z,77.36
2022-09-03T18:58:06.057Z,77.34
2022-09-03T19:00:58.229Z,77.25
2022-09-03T19:03:54.618Z,77.22
2022-09-03T19:07:06.772Z,77.67
2022-09-03T19:10:04.646Z,77.82
2022-09-03T19:13:06.634Z,77.77
2022-09-03T19:15:57.826Z,77.66
2022-09-03T19:18:55.646Z,77.82
2022-09-03T19:21:47.905Z,78.02
2022-09-03T19:24:34.891Z,78.11
2022-09-03T19:27:58.524Z,78.12
2022-09-03T19:30:58.098Z,78.28
2022-09-03T19:33:44.661Z,78.19
2022-09-03T19:36:46.450Z,78.15
2022-09-03T19:39:32.672Z,78.21
2022-09-03T19:42:25.114Z,78.38
2022-09-03T19:45:11.373Z,78.14
2022-09-03T19:48:03.812Z,78.35
2022-09-03T19:50:54.340Z,78.56
2022-09-03T19:53:41.941Z,78.53
2022-09-03T19:56:37.745Z,78.44
2022-09-03T19:59:30.315Z,78.73
2022-09-03T20:02:17.833Z,78.81
2022-09-03T20:05:12.806Z,79.10
2022-09-03T20:07:59.343Z,79.12
2022-09-03T20:10:27.903Z,79.27
2022-09-03T20:13:01.865Z,79.39
2022-09-03T20:15:38.858Z,79.22
2022-09-03T20:18:11.342Z,79.09
2022-09-03T20:20:42.232Z,79.09
2022-09-03T20:23:20.031Z,78.92
2022-09-03T20:25:47.899Z,79.15
2022-09-03T20:28:34.801Z,79.17
2022-09-03T20:31:07.869Z,79.40
2022-09-03T20:33:47.779Z,79.42
2022-09-03T20:36:18.630Z,79.82
2022-09-03T20:38:55.472Z,79.78
2022-09-03T20:41:29.563Z,79.54
2022-09-03T20:44:06.813Z,79.71
2022-09-03T20:46:34.908Z,79.90
2022-09-03T20:49:21.076Z,79.82
2022-09-03T20:51:49.131Z,79.60
2022-09-03T20:54:20.088Z,79.29
2022-09-03T20:57:07.288Z,79.40
2022-09-03T20:59:48.363Z,79.16
2022-09-03T21:02:26.100Z,79.08
2022-09-03T21:04:54.035Z,79.02
2022-09-03T21:07:48.217Z,79.05
2022-09-03T21:10:25.249Z,78.77
2022-09-03T21:13:14.768Z,78.73
2022-09-03T21:15:58.647Z,78.68
2022-09-03T21:18:29.656Z,78.36
2022-09-03T21:21:10.097Z,78.43
2022-09-03T21:23:41.338Z,78.39
2022-09-03T21:26:17.994Z,78.28
2022-09-03T21:28:50.355Z,78.32
2022-09-03T21:31:24.817Z,78.28
2022-09-03T21:33:54.453Z,78.34
2022-09-03T21:36:32.653Z,78.38
2022-09-03T21:39:06.360Z,78.26
2022-09-03T21:41:41.734Z,78.20
2022-09-03T21:44:35.963Z,78.41
2022-09-03T21:47:11.884Z,78.43
2022-09-03T21:50:07.685Z,78.91
2022-09-03T21:52:35.480Z,78.68
2022-09-03T21:55:10.131Z,78.38
2022-09-03T21:57:46.992Z,78.14
2022-09-03T22:00:21.986Z,78.53
2022-09-03T22:02:50.279Z,78.53
2022-09-03T22:05:19.070Z,78.63
2022-09-03T22:08:09.199Z,78.67
2022-09-03T22:10:54.220Z,78.74
2022-09-03T22:13:31.226Z,78.48
2022-09-03T22:16:07.261Z,78.38
2022-09-03T22:18:36.908Z,78.66
2022-09-03T22:21:13.303Z,79.07
2022-09-03T22:23:47.311Z,79.33
2022-09-03T22:26:18.085Z,79.40
2022-09-03T22:29:05.720Z,79.60
2022-09-03T22:31:52.372Z,79.41
2022-09-03T22:34:39.164Z,79.32
2022-09-03T22:37:16.264Z,79.26
2022-09-03T22:39:48.981Z,79.46
2022-09-03T22:42:19.725Z,79.37
2022-09-03T22:45:06.182Z,79.28
2022-09-03T22:47:40.209Z,79.44
2022-09-03T22:50:12.567Z,79.18
2022-09-03T22:53:09.926Z,79.31
2022-09-03T22:55:41.260Z,79.34
2022-09-03T22:58:13.033Z,79.59
2022-09-03T23:00:45.577Z,79.66
2022-09-03T23:03:20.999Z,80.02
2022-09-03T23:05:52.020Z,80.11
2022-09-03T23:08:27.540Z,80.34
2022-09-03T23:11:14.108Z,80.37
2022-09-03T23:13:46.364Z,80.49
2022-09-03T23:16:21.755Z,80.29
2022-09-03T23:18:49.923Z,80.45
2022-09-03T23:21:22.376Z,80.48
2022-09-03T23:23:54.043Z,80.36
2022-09-03T23:26:40.453Z,80.33
2022-09-03T23:29:11.816Z,80.21
2022-09-03T23:31:39.848Z,80.21
2022-09-03T23:34:10.232Z,80.07
2022-09-03T23:37:29.284Z,80.05
2022-09-03T23:39:57.755Z,79.82
2022-09-03T23:42:31.418Z,79.81
2022-09-03T23:45:17.531Z,79.68
2022-09-03T23:48:17.732Z,79.72
2022-09-03T23:51:01.673Z,79.57
2022-09-03T23:53:48.309Z,79.69
2022-09-03T23:56:31.574Z,79.94
2022-09-03T23:59:02.241Z,80.19
